createdAt,value
2023-01-19T00:03:16.037Z,99845.56
2023-01-19T00:07:18.133Z,99844.47
2023-01-19T00:11:20.248Z,99855.03
2023-01-19T00:15:21.963Z,99869.13
2023-01-19T00:19:23.904Z,99871.44
2023-01-19T00:23:26.208Z,99885.94
2023-01-19T00:27:29.467Z,99872.09
2023-01-19T00:31:34.177Z,99869.72
2023-01-19T00:35:36.557Z,99863.34
2023-01-19T00:39:38.294Z,99888.31
2023-01-19T00:43:40.164Z,99870.81
2023-01-19T00:47:42.478Z,99870.97
2023-01-19T00:51:44.279Z,99867.50
2023-01-19T00:55:46.158Z,99882.22
2023-01-19T00:59:47.988Z,99894.31
2023-01-19T01:03:49.721Z,99896.94
2023-01-19T01:07:51.509Z,99893.59
2023-01-19T01:11:53.689Z,99895.56
2023-01-19T01:15:57.161Z,99895.72
2023-01-19T01:19:59.039Z,99904.47
2023-01-19T01:24:00.894Z,99915.03
2023-01-19T01:28:05.162Z,99926.53
2023-01-19T01:32:08.564Z,99938.09
2023-01-19T01:36:12.020Z,99962.00
2023-01-19T01:40:17.701Z,99968.38
2023-01-19T01:44:52.875Z,99972.84
2023-01-19T01:48:57.840Z,99971.47
2023-01-19T01:53:22.090Z,99982.00
2023-01-19T01:57:27.957Z,99981.59
2023-01-19T02:01:48.676Z,99982.84
2023-01-19T02:05:52.067Z,99985.34
2023-01-19T02:10:12.415Z,99986.16
2023-01-19T02:14:14.172Z,99973.78
2023-01-19T02:18:16.103Z,99999.34
2023-01-19T02:22:38.680Z,100014.09
2023-01-19T02:26:44.414Z,100010.06
2023-01-19T02:30:46.175Z,100001.56
2023-01-19T02:34:47.971Z,99996.16
2023-01-19T02:38:51.813Z,100011.72
2023-01-19T02:42:58.708Z,100022.84
2023-01-19T02:47:00.778Z,100033.91
2023-01-19T02:51:09.421Z,100015.00
2023-01-19T02:55:16.962Z,99993.16
2023-01-19T02:59:37.928Z,100001.19
2023-01-19T03:03:58.619Z,100028.56
2023-01-19T03:08:17.627Z,100061.84
2023-01-19T03:12:34.643Z,100039.34
2023-01-19T03:16:42.125Z,100021.88
2023-01-19T03:20:45.815Z,100026.91
2023-01-19T03:24:48.828Z,100005.25
2023-01-19T03:28:51.686Z,100017.19
2023-01-19T03:32:59.201Z,100014.28
2023-01-19T03:37:04.081Z,100035.25
2023-01-19T03:41:11.421Z,100043.03
2023-01-19T03:45:14.458Z,100053.72
2023-01-19T03:49:16.675Z,100057.88
2023-01-19T03:53:20.806Z,100059.69
2023-01-19T03:57:25.614Z,100061.63
2023-01-19T04:01:27.747Z,100059.38
2023-01-19T04:05:29.708Z,100066.59
2023-01-19T04:09:31.576Z,100059.53
2023-01-19T04:13:33.318Z,100063.16
2023-01-19T04:17:35.139Z,100064.19
2023-01-19T04:21:36.894Z,100054.09
2023-01-19T04:25:39.041Z,100050.75
2023-01-19T04:29:40.771Z,100053.97
2023-01-19T04:33:42.489Z,100051.47
2023-01-19T04:37:45.188Z,100049.78
2023-01-19T04:41:46.942Z,100060.06
2023-01-19T04:45:49.325Z,100060.06
2023-01-19T04:49:51.180Z,100063.56
2023-01-19T04:53:52.907Z,100078.44
2023-01-19T04:57:55.287Z,100074.56
2023-01-19T05:01:57.235Z,100083.03
2023-01-19T05:05:58.964Z,100082.88
2023-01-19T05:10:01.153Z,100081.78
2023-01-19T05:14:03.127Z,100089.28
2023-01-19T05:18:05.002Z,100089.00
2023-01-19T05:22:07.046Z,100088.00
2023-01-19T05:26:09.678Z,100092.47
2023-01-19T05:30:13.479Z,100100.41
2023-01-19T05:34:15.589Z,100104.84
2023-01-19T05:38:20.948Z,100106.09
2023-01-19T05:42:32.818Z,100102.47
2023-01-19T05:46:34.960Z,100109.16
2023-01-19T05:50:36.660Z,100120.44
2023-01-19T05:54:40.488Z,100113.44
2023-01-19T05:58:42.313Z,100118.72
2023-01-19T06:02:44.384Z,100129.31
2023-01-19T06:06:49.818Z,100116.81
2023-01-19T06:10:51.579Z,100137.94
2023-01-19T06:14:53.283Z,100138.22
2023-01-19T06:18:55.724Z,100143.50
2023-01-19T06:22:58.010Z,100143.78
2023-01-19T06:27:00.535Z,100144.03
2023-01-19T06:31:02.603Z,100171.59
2023-01-19T06:35:04.907Z,100176.88
2023-01-19T06:39:06.801Z,100180.34
2023-01-19T06:43:09.235Z,100179.38
2023-01-19T06:47:15.403Z,100186.31
2023-01-19T06:51:18.044Z,100189.66
2023-01-19T06:55:20.022Z,100201.88
2023-01-19T06:59:21.716Z,100203.28
2023-01-19T07:03:23.709Z,100209.28
2023-01-19T07:07:25.999Z,100218.88
2023-01-19T07:11:31.410Z,100218.88
2023-01-19T07:15:33.443Z,100229.44
2023-01-19T07:19:35.433Z,100233.06
2023-01-19T07:23:38.260Z,100248.19
2023-01-19T07:27:40.631Z,100256.44
2023-01-19T07:31:42.516Z,100255.00
2023-01-19T07:35:50.671Z,100269.44
2023-01-19T07:39:52.416Z,100278.34
2023-01-19T07:43:54.309Z,100283.38
2023-01-19T07:47:56.920Z,100287.78
2023-01-19T07:51:58.631Z,100301.66
2023-01-19T07:56:00.436Z,100303.25
2023-01-19T08:00:03.531Z,100300.69
2023-01-19T08:04:14.201Z,100302.03
2023-01-19T08:08:15.993Z,100309.13
2023-01-19T08:12:18.404Z,100311.50
2023-01-19T08:16:20.134Z,100318.69
2023-01-19T08:20:23.432Z,100328.31
2023-01-19T08:24:28.647Z,100327.59
2023-01-19T08:28:30.439Z,100333.94
2023-01-19T08:32:32.646Z,100341.19
2023-01-19T08:36:34.912Z,100350.03
2023-01-19T08:40:41.464Z,100356.19
2023-01-19T08:44:57.162Z,100355.91
2023-01-19T08:48:59.680Z,100364.13
2023-01-19T08:53:04.610Z,100350.69
2023-01-19T08:57:06.362Z,100350.53
2023-01-19T09:01:09.315Z,100358.94
2023-01-19T09:05:12.142Z,100363.56
2023-01-19T09:09:14.178Z,100357.63
2023-01-19T09:13:17.219Z,100363.34
2023-01-19T09:17:19.084Z,100370.59
2023-01-19T09:21:20.873Z,100381.72
2023-01-19T09:25:22.593Z,100376.06
2023-01-19T09:29:24.398Z,100382.63
2023-01-19T09:33:26.207Z,100390.88
2023-01-19T09:37:28.024Z,100390.31
2023-01-19T09:41:30.466Z,100390.63
2023-01-19T09:45:40.040Z,100397.03
2023-01-19T09:49:47.112Z,100391.91
2023-01-19T09:54:39.279Z,100394.75
2023-01-19T09:58:41.725Z,100415.06
2023-01-19T10:02:48.634Z,100412.28
2023-01-19T10:06:54.185Z,100416.47
2023-01-19T10:10:58.098Z,100416.47
2023-01-19T10:15:01.660Z,100426.06
2023-01-19T10:19:16.227Z,100425.13
2023-01-19T10:23:30.776Z,100424.84
2023-01-19T10:27:35.062Z,100431.56
2023-01-19T10:31:40.800Z,100429.59
2023-01-19T10:35:42.997Z,100431.00
2023-01-19T10:39:54.190Z,100435.59
2023-01-19T10:44:01.164Z,100428.34
2023-01-19T10:48:07.330Z,100431.69
2023-01-19T10:52:33.444Z,100434.34
2023-01-19T10:56:37.325Z,100438.66
2023-01-19T11:00:43.546Z,100439.75
2023-01-19T11:04:48.951Z,100438.91
2023-01-19T11:08:53.386Z,100442.13
2023-01-19T11:13:02.880Z,100431.28
2023-01-19T11:17:04.864Z,100446.06
2023-01-19T11:21:09.662Z,100448.56
2023-01-19T11:25:22.901Z,100452.28
2023-01-19T11:29:26.979Z,100448.97
2023-01-19T11:33:50.733Z,100440.47
2023-01-19T11:38:06.138Z,100430.72
2023-01-19T11:42:12.962Z,100436.84
2023-01-19T11:46:15.501Z,100444.94
2023-01-19T11:50:33.170Z,100439.91
2023-01-19T11:54:49.473Z,100439.91
2023-01-19T11:58:51.625Z,100441.31
2023-01-19T12:02:58.781Z,100438.50
2023-01-19T12:07:10.204Z,100440.47
2023-01-19T12:11:17.673Z,100449.50
2023-01-19T12:15:23.658Z,100443.53
2023-01-19T12:19:31.564Z,100441.56
2023-01-19T12:23:53.705Z,100444.94
2023-01-19T12:27:56.234Z,100443.78
2023-01-19T12:32:13.220Z,100441.03
2023-01-19T12:36:30.403Z,100438.25
2023-01-19T12:40:35.272Z,100447.00
2023-01-19T12:44:37.178Z,100446.06
2023-01-19T12:48:39.711Z,100448.56
2023-01-19T12:52:51.562Z,100441.03
2023-01-19T12:57:00.633Z,100443.28
2023-01-19T13:01:14.645Z,100445.38
2023-01-19T13:05:18.228Z,100451.22
2023-01-19T13:09:30.751Z,100453.03
2023-01-19T13:13:40.457Z,100447.34
2023-01-19T13:17:54.244Z,100449.28
2023-01-19T13:21:56.098Z,100443.84
2023-01-19T13:26:13.776Z,100449.28
2023-01-19T13:30:18.492Z,100449.69
2023-01-19T13:34:25.064Z,100449.94
2023-01-19T13:38:29.397Z,100450.94
2023-01-19T13:42:36.385Z,100452.47
2023-01-19T13:46:38.799Z,100450.78
2023-01-19T13:50:40.655Z,100458.03
2023-01-19T13:55:02.886Z,100455.41
2023-01-19T13:59:12.706Z,100459.44
2023-01-19T14:03:23.094Z,100458.34
2023-01-19T14:07:27.623Z,100453.16
2023-01-19T14:11:29.359Z,100463.75
2023-01-19T14:15:34.169Z,100463.91
2023-01-19T14:19:56.326Z,100468.63
2023-01-19T14:24:09.284Z,100466.94
2023-01-19T14:28:30.417Z,100475.00
2023-01-19T14:32:45.453Z,100481.41
2023-01-19T14:36:51.851Z,100485.03
2023-01-19T14:40:53.760Z,100489.47
2023-01-19T14:44:57.018Z,100489.75
2023-01-19T14:49:03.130Z,100498.66
2023-01-19T14:53:08.153Z,100488.91
2023-01-19T14:57:14.090Z,100494.19
2023-01-19T15:01:15.942Z,100494.47
2023-01-19T15:05:17.839Z,100496.69
2023-01-19T15:09:19.677Z,100502.50
2023-01-19T15:13:25.747Z,100511.66
2023-01-19T15:17:27.540Z,100518.34
2023-01-19T15:21:29.392Z,100518.72
2023-01-19T15:25:31.673Z,100522.00
2023-01-19T15:29:34.217Z,100530.91
2023-01-19T15:33:35.984Z,100538.00
2023-01-19T15:37:37.696Z,100547.56
2023-01-19T15:41:40.598Z,100537.66
2023-01-19T15:45:48.022Z,100532.88
2023-01-19T15:49:49.832Z,100538.91
2023-01-19T15:53:52.891Z,100536.09
2023-01-19T15:57:58.567Z,100536.63
2023-01-19T16:02:00.422Z,100541.31
2023-01-19T16:06:02.487Z,100535.94
2023-01-19T16:10:06.446Z,100539.38
2023-01-19T16:14:08.175Z,100536.78
2023-01-19T16:18:09.919Z,100543.50
2023-01-19T16:22:12.091Z,100547.47
2023-01-19T16:26:28.688Z,100549.78
2023-01-19T16:30:30.548Z,100553.75
2023-01-19T16:34:32.711Z,100564.69
2023-01-19T16:38:34.516Z,100563.50
2023-01-19T16:42:36.352Z,100571.75
2023-01-19T16:46:40.692Z,100584.25
2023-01-19T16:50:42.449Z,100580.78
2023-01-19T16:54:44.285Z,100584.00
2023-01-19T16:58:46.078Z,100586.53
2023-01-19T17:02:47.974Z,100607.38
2023-01-19T17:06:52.997Z,100611.47
2023-01-19T17:10:55.761Z,100605.47
2023-01-19T17:14:57.529Z,100616.28
2023-01-19T17:19:00.761Z,100612.19
2023-01-19T17:23:02.815Z,100611.94
2023-01-19T17:27:04.650Z,100618.41
2023-01-19T17:31:07.416Z,100618.09
2023-01-19T17:35:10.325Z,100617.00
2023-01-19T17:39:15.074Z,100620.81
2023-01-19T17:43:16.998Z,100620.00
2023-01-19T17:47:24.722Z,100630.78
2023-01-19T17:51:27.898Z,100630.16
2023-01-19T17:55:29.648Z,100641.81
2023-01-19T17:59:32.784Z,100642.88
2023-01-19T18:03:34.616Z,100651.84
2023-01-19T18:07:36.357Z,100663.47
2023-01-19T18:11:38.335Z,100674.97
2023-01-19T18:15:40.145Z,100681.06
2023-01-19T18:19:41.851Z,100683.63
2023-01-19T18:23:45.168Z,100685.75
2023-01-19T18:27:46.999Z,100685.75
2023-01-19T18:31:48.884Z,100673.53
2023-01-19T18:35:50.938Z,100668.72
2023-01-19T18:39:54.644Z,100663.09
2023-01-19T18:43:59.922Z,100659.09
2023-01-19T18:48:02.170Z,100658.72
2023-01-19T18:52:04.058Z,100655.72
2023-01-19T18:56:07.102Z,100662.19
2023-01-19T19:00:09.528Z,100678.91
2023-01-19T19:04:11.285Z,100693.53
2023-01-19T19:08:13.285Z,100719.44
2023-01-19T19:12:15.061Z,100723.88
2023-01-19T19:16:16.929Z,100720.00
2023-01-19T19:20:19.625Z,100705.13
2023-01-19T19:24:21.345Z,100716.66
2023-01-19T19:28:23.112Z,100701.41
2023-01-19T19:32:24.874Z,100701.75
2023-01-19T19:36:28.020Z,100701.13
2023-01-19T19:40:30.255Z,100709.88
2023-01-19T19:44:32.051Z,100705.31
2023-01-19T19:48:36.666Z,100715.84
2023-01-19T19:52:40.997Z,100718.47
2023-01-19T19:56:42.895Z,100717.56
2023-01-19T20:00:46.038Z,100727.25
2023-01-19T20:04:47.907Z,100729.13
2023-01-19T20:08:51.819Z,100735.97
2023-01-19T20:12:53.629Z,100735.84
2023-01-19T20:16:55.343Z,100745.69
2023-01-19T20:20:58.450Z,100740.50
2023-01-19T20:25:00.210Z,100746.50
2023-01-19T20:29:06.299Z,100752.50
2023-01-19T20:33:08.080Z,100756.84
2023-01-19T20:37:10.250Z,100757.13
2023-01-19T20:41:12.909Z,100759.16
2023-01-19T20:45:14.788Z,100760.31
2023-01-19T20:49:16.657Z,100769.16
2023-01-19T20:53:18.334Z,100776.13
2023-01-19T20:57:20.157Z,100781.50
2023-01-19T21:01:24.498Z,100783.28
2023-01-19T21:05:26.393Z,100788.44
2023-01-19T21:09:28.212Z,100795.28
2023-01-19T21:13:30.764Z,100807.16
2023-01-19T21:17:32.828Z,100812.34
2023-01-19T21:21:34.660Z,100825.16
2023-01-19T21:25:37.464Z,100830.56
2023-01-19T21:29:40.895Z,100854.47
2023-01-19T21:33:43.948Z,100855.84
2023-01-19T21:37:45.764Z,100869.84
2023-01-19T21:41:47.577Z,100862.47
2023-01-19T21:45:49.947Z,100855.75
2023-01-19T21:49:51.698Z,100862.78
2023-01-19T21:53:56.098Z,100859.31
2023-01-19T21:57:57.779Z,100855.75
2023-01-19T22:01:59.776Z,100846.88
2023-01-19T22:06:13.140Z,100844.38
2023-01-19T22:10:15.017Z,100847.09
2023-01-19T22:14:16.858Z,100849.97
2023-01-19T22:18:18.709Z,100853.50
2023-01-19T22:22:20.432Z,100852.59
2023-01-19T22:26:22.473Z,100857.09
2023-01-19T22:30:24.250Z,100853.94
2023-01-19T22:34:26.240Z,100857.75
2023-01-19T22:38:28.023Z,100859.09
2023-01-19T22:42:29.866Z,100870.78
2023-01-19T22:46:34.258Z,100874.44
2023-01-19T22:50:36.013Z,100879.88
2023-01-19T22:54:37.754Z,100879.16
2023-01-19T22:58:44.295Z,100885.47
2023-01-19T23:02:46.124Z,100889.97
2023-01-19T23:06:50.566Z,100887.34
2023-01-19T23:10:52.323Z,100884.72
2023-01-19T23:14:54.043Z,100896.94
2023-01-19T23:18:58.168Z,100884.72
2023-01-19T23:23:00.006Z,100893.34
2023-01-19T23:27:02.533Z,100896.72
2023-01-19T23:31:14.733Z,100894.63
2023-01-19T23:35:16.981Z,100894.53
2023-01-19T23:39:22.544Z,100901.56
2023-01-19T23:43:24.267Z,100907.66
2023-01-19T23:47:25.986Z,100904.31
2023-01-19T23:51:30.249Z,100917.75
2023-01-19T23:55:32.017Z,100916.25
2023-01-19T23:59:33.843Z,100920.59
